Time;durP1;ratioP1;P1;durP2;ratioP2;P2;SDS_P1;SDS_P2;PMS_P1;PMS_P2;Temp;Humidity;BMP_temperature;BMP_pressure;BME280_temperature;BME280_humidity;BME280_pressure;Samples;Min_cycle;Max_cycle;Signal;HPM_P1;HPM_P2
2021/06/11 00:00:47;;;;;;;5.90;3.03;;;20.40;73.10;;;;;;5055131;28;20021;-84
2021/06/11 00:03:13;;;;;;;4.65;3.55;;;20.30;73.50;;;;;;5056688;28;20102;-84
2021/06/11 00:05:39;;;;;;;6.85;4.28;;;20.20;74.10;;;;;;5037943;28;20439;-85
2021/06/11 00:08:05;;;;;;;6.13;3.60;;;20.10;74.40;;;;;;5055239;28;20029;-85
2021/06/11 00:10:31;;;;;;;4.28;3.42;;;20.10;75.00;;;;;;5056087;28;20389;-84
2021/06/11 00:13:00;;;;;;;5.95;3.63;;;20.00;75.00;;;;;;5056095;28;20036;-85
2021/06/11 00:15:26;;;;;;;7.45;3.83;;;19.90;75.20;;;;;;5037914;28;20033;-84
2021/06/11 00:17:55;;;;;;;5.63;3.53;;;19.80;75.50;;;;;;5054655;28;20018;-84
2021/06/11 00:20:21;;;;;;;8.07;3.70;;;19.70;76.30;;;;;;5056476;28;20044;-84
2021/06/11 00:22:48;;;;;;;7.03;4.63;;;19.60;76.00;;;;;;5054992;28;20029;-84
2021/06/11 00:25:18;;;;;;;5.97;4.03;;;19.60;76.20;;;;;;5055157;28;20056;-84
2021/06/11 00:27:44;;;;;;;6.82;3.78;;;19.60;76.50;;;;;;5054485;28;20108;-84
2021/06/11 00:30:11;;;;;;;6.38;3.53;;;19.60;76.70;;;;;;5054942;28;20452;-84
2021/06/11 00:32:37;;;;;;;5.32;4.03;;;19.50;77.00;;;;;;5055806;28;20024;-85
2021/06/11 00:35:07;;;;;;;6.93;3.80;;;19.50;77.30;;;;;;5054411;28;20028;-83
2021/06/11 00:37:32;;;;;;;5.85;4.10;;;19.50;77.60;;;;;;5055179;28;20049;-84
2021/06/11 00:39:59;;;;;;;6.18;3.90;;;19.40;77.80;;;;;;5037642;28;20079;-85
2021/06/11 00:42:27;;;;;;;8.23;4.60;;;19.40;78.20;;;;;;5037948;28;20086;-85
2021/06/11 00:44:53;;;;;;;6.13;4.10;;;19.40;78.40;;;;;;5053729;28;20040;-83
2021/06/11 00:47:18;;;;;;;7.72;4.35;;;19.30;78.60;;;;;;5037922;28;20025;-83
2021/06/11 00:49:47;;;;;;;7.85;4.28;;;19.30;79.00;;;;;;5053795;28;20040;-83
2021/06/11 00:52:13;;;;;;;6.75;4.28;;;19.30;79.40;;;;;;5053764;28;20025;-83
2021/06/11 00:54:39;;;;;;;6.82;4.47;;;19.20;79.70;;;;;;5037562;28;20423;-83
2021/06/11 00:57:05;;;;;;;8.77;4.63;;;19.20;80.00;;;;;;5036470;28;20033;-83
2021/06/11 00:59:31;;;;;;;9.57;5.07;;;19.20;80.90;;;;;;5053917;28;20396;-83
2021/06/11 01:01:56;;;;;;;7.82;5.25;;;19.20;80.80;;;;;;5053835;28;20025;-83
2021/06/11 01:04:22;;;;;;;8.07;5.15;;;19.10;80.80;;;;;;5037450;28;20060;-83
2021/06/11 01:06:49;;;;;;;7.70;5.50;;;19.10;80.80;;;;;;5036627;28;20036;-82
2021/06/11 01:09:15;;;;;;;10.02;5.93;;;19.10;81.00;;;;;;5054946;28;20033;-82
2021/06/11 01:11:43;;;;;;;13.00;6.55;;;19.10;81.10;;;;;;5053480;28;20039;-82
2021/06/11 01:14:10;;;;;;;8.32;5.60;;;19.10;81.30;;;;;;5053339;28;20025;-82
2021/06/11 01:16:36;;;;;;;11.45;6.55;;;19.10;81.50;;;;;;5053613;28;20037;-82
2021/06/11 01:19:03;;;;;;;9.38;6.63;;;19.10;81.70;;;;;;5054656;28;20060;-82
2021/06/11 01:21:35;;;;;;;11.23;6.93;;;19.00;81.70;;;;;;5037256;28;20033;-82
2021/06/11 01:24:11;;;;;;;9.93;7.72;;;19.00;81.70;;;;;;5054681;28;20021;-82
2021/06/11 01:26:49;;;;;;;11.55;7.53;;;18.80;81.70;;;;;;5054520;28;20040;-82
2021/06/11 01:29:29;;;;;;;12.23;8.02;;;18.90;81.80;;;;;;5054799;28;20025;-83
2021/06/11 01:32:03;;;;;;;12.20;7.43;;;18.80;81.90;;;;;;5055204;28;20029;-82
2021/06/11 01:34:39;;;;;;;9.55;7.22;;;18.80;82.10;;;;;;5053279;28;20032;-82
2021/06/11 01:37:18;;;;;;;10.85;7.55;;;18.90;82.20;;;;;;5054020;28;20052;-82
2021/06/11 01:39:48;;;;;;;11.13;8.23;;;18.80;82.20;;;;;;5054426;28;20037;-82
2021/06/11 01:42:14;;;;;;;11.45;8.40;;;18.80;82.40;;;;;;5053180;28;20033;-83
2021/06/11 01:44:41;;;;;;;11.52;8.75;;;18.80;82.70;;;;;;5053563;28;20037;-83
2021/06/11 01:47:08;;;;;;;12.55;8.15;;;18.70;83.00;;;;;;5052963;28;20121;-84
2021/06/11 01:49:35;;;;;;;13.13;9.75;;;18.70;83.20;;;;;;5036450;28;20029;-83
2021/06/11 01:52:03;;;;;;;11.73;9.07;;;18.70;83.30;;;;;;5053024;28;20017;-83
2021/06/11 01:54:29;;;;;;;10.70;8.30;;;18.70;83.40;;;;;;5069270;28;20170;-84
2021/06/11 01:57:00;;;;;;;11.10;6.60;;;18.70;83.60;;;;;;5036848;28;20385;-84
2021/06/11 01:59:27;;;;;;;9.95;7.53;;;18.70;83.80;;;;;;5036587;28;20447;-84
2021/06/11 02:01:54;;;;;;;10.95;8.38;;;18.60;83.90;;;;;;5054488;28;20396;-84
2021/06/11 02:04:20;;;;;;;10.48;7.45;;;18.60;84.20;;;;;;5054091;28;20040;-84
2021/06/11 02:06:47;;;;;;;8.82;6.70;;;18.60;84.50;;;;;;5054396;28;20025;-84
2021/06/11 02:09:12;;;;;;;9.13;6.53;;;18.50;84.70;;;;;;5035588;28;20126;-83
2021/06/11 02:11:41;;;;;;;9.30;6.53;;;18.50;85.00;;;;;;5036531;28;20064;-83
2021/06/11 02:14:11;;;;;;;10.30;7.35;;;18.40;85.20;;;;;;5068917;28;20033;-83
2021/06/11 02:16:37;;;;;;;11.02;7.60;;;18.40;85.70;;;;;;5052434;28;20108;-83
2021/06/11 02:19:03;;;;;;;10.43;7.60;;;18.20;85.40;;;;;;5052478;28;20481;-83
2021/06/11 02:21:30;;;;;;;10.07;7.15;;;18.20;85.70;;;;;;5052805;28;20027;-82
2021/06/11 02:23:56;;;;;;;11.75;8.55;;;18.10;85.80;;;;;;5035864;28;20071;-82
2021/06/11 02:26:23;;;;;;;12.90;8.93;;;18.00;85.90;;;;;;5052259;28;20037;-82
2021/06/11 02:28:52;;;;;;;16.17;10.25;;;18.00;86.20;;;;;;5053052;28;20461;-82
2021/06/11 02:31:19;;;;;;;15.07;11.10;;;17.90;86.70;;;;;;5052147;28;20031;-82
2021/06/11 02:33:45;;;;;;;13.25;11.05;;;17.90;87.10;;;;;;5052130;28;20480;-82
2021/06/11 02:36:11;;;;;;;23.60;12.15;;;17.80;87.00;;;;;;5052153;28;20473;-82
2021/06/11 02:38:36;;;;;;;16.27;11.15;;;17.80;87.20;;;;;;5051656;28;20056;-82
2021/06/11 02:41:05;;;;;;;16.33;11.73;;;17.80;87.30;;;;;;5051963;28;20025;-82
2021/06/11 02:43:33;;;;;;;16.10;11.68;;;17.80;87.50;;;;;;5053456;28;20496;-84
2021/06/11 02:46:16;;;;;;;18.08;13.50;;;17.80;87.60;;;;;;5052001;28;20037;-83
2021/06/11 02:49:16;;;;;;;19.33;12.63;;;17.70;87.60;;;;;;5035877;28;20114;-83
2021/06/11 02:51:48;;;;;;;15.93;12.13;;;17.70;87.80;;;;;;5052685;28;20032;-85
2021/06/11 02:54:20;;;;;;;17.13;13.30;;;17.70;88.60;;;;;;5051992;28;20017;-84
2021/06/11 02:56:50;;;;;;;18.05;12.85;;;17.70;88.60;;;;;;5053614;28;20492;-84
2021/06/11 02:59:23;;;;;;;16.77;13.50;;;17.60;88.10;;;;;;5052275;28;20452;-83
2021/06/11 03:01:53;;;;;;;17.70;13.65;;;17.60;88.40;;;;;;5051839;28;20439;-83
2021/06/11 03:04:23;;;;;;;17.60;14.25;;;17.60;88.70;;;;;;5052165;28;20342;-83
2021/06/11 03:06:51;;;;;;;17.20;13.27;;;17.60;88.80;;;;;;5052577;28;20143;-82
2021/06/11 03:09:21;;;;;;;18.25;14.50;;;17.60;89.00;;;;;;5051929;28;20029;-83
2021/06/11 03:11:50;;;;;;;19.25;14.15;;;17.60;89.20;;;;;;5051964;28;20025;-83
2021/06/11 03:14:16;;;;;;;20.52;15.30;;;17.60;89.20;;;;;;5051414;28;20036;-83
2021/06/11 03:16:46;;;;;;;18.38;14.20;;;17.60;89.30;;;;;;5051437;28;20029;-83
2021/06/11 03:19:15;;;;;;;17.15;13.68;;;17.50;89.20;;;;;;5051855;28;20025;-82
2021/06/11 03:21:46;;;;;;;17.98;13.77;;;17.60;89.30;;;;;;5052238;28;20033;-82
2021/06/11 03:24:23;;;;;;;18.38;14.13;;;17.50;89.40;;;;;;5052876;28;20025;-83
2021/06/11 03:27:00;;;;;;;19.45;14.18;;;17.50;89.60;;;;;;5052820;28;20029;-83
2021/06/11 03:29:40;;;;;;;19.48;14.77;;;17.50;89.80;;;;;;5053115;28;20469;-83
2021/06/11 03:32:11;;;;;;;19.27;13.63;;;17.50;90.00;;;;;;5053065;28;20437;-83
2021/06/11 03:34:43;;;;;;;18.13;14.50;;;17.50;90.00;;;;;;5051685;28;20120;-82
2021/06/11 03:37:17;;;;;;;20.88;15.73;;;17.50;90.10;;;;;;5052387;28;20056;-83
2021/06/11 03:40:00;;;;;;;18.83;14.55;;;17.50;90.10;;;;;;5052834;28;20044;-83
2021/06/11 03:42:28;;;;;;;22.85;15.43;;;17.60;90.10;;;;;;5052770;28;20052;-83
2021/06/11 03:44:55;;;;;;;20.75;15.63;;;17.50;90.10;;;;;;5052292;28;20468;-82
2021/06/11 03:47:24;;;;;;;19.75;15.15;;;17.50;90.10;;;;;;5051823;28;20055;-83
2021/06/11 03:49:53;;;;;;;20.38;15.52;;;17.50;90.10;;;;;;5051155;28;20052;-83
2021/06/11 03:52:25;;;;;;;22.60;15.77;;;17.50;90.10;;;;;;5050786;28;20033;-83
2021/06/11 03:54:57;;;;;;;27.48;16.58;;;17.50;90.10;;;;;;5052442;28;20029;-84
2021/06/11 03:57:26;;;;;;;24.05;15.93;;;17.50;90.20;;;;;;5052551;28;20388;-85
2021/06/11 03:59:53;;;;;;;23.63;15.32;;;17.50;90.20;;;;;;5052785;28;20493;-84
2021/06/11 04:02:19;;;;;;;22.48;16.45;;;17.50;90.20;;;;;;5032889;28;20080;-84
2021/06/11 04:04:45;;;;;;;23.00;16.02;;;17.40;90.30;;;;;;5049551;28;20452;-85
2021/06/11 04:07:27;;;;;;;24.92;18.15;;;17.50;90.40;;;;;;5049853;28;20040;-85
2021/06/11 04:10:05;;;;;;;27.30;15.90;;;17.50;90.40;;;;;;5032853;28;20532;-85
2021/06/11 04:12:46;;;;;;;20.77;15.25;;;17.40;90.40;;;;;;5030467;28;20018;-84
2021/06/11 04:15:12;;;;;;;23.00;16.63;;;17.40;90.40;;;;;;5031986;28;20075;-84
2021/06/11 04:17:45;;;;;;;21.65;15.80;;;17.50;90.50;;;;;;5030960;28;20021;-83
2021/06/11 04:20:21;;;;;;;25.48;17.08;;;17.40;90.50;;;;;;5032777;28;20048;-83
2021/06/11 04:22:49;;;;;;;24.30;17.90;;;17.40;90.50;;;;;;5031291;28;20032;-84
2021/06/11 04:25:17;;;;;;;21.15;15.18;;;17.40;90.50;;;;;;5032626;28;20393;-84
2021/06/11 04:27:44;;;;;;;21.65;16.92;;;17.40;90.60;;;;;;5015027;28;20033;-83
2021/06/11 04:30:13;;;;;;;19.45;15.50;;;17.40;90.60;;;;;;5031504;28;20369;-84
2021/06/11 04:32:38;;;;;;;20.63;15.63;;;17.40;90.60;;;;;;5034744;28;20083;-83
2021/06/11 04:35:05;;;;;;;19.52;14.52;;;17.50;90.70;;;;;;5034469;28;20104;-83
2021/06/11 04:37:30;;;;;;;21.10;15.85;;;17.50;90.70;;;;;;5017587;28;20516;-83
2021/06/11 04:39:56;;;;;;;25.30;16.67;;;17.50;90.70;;;;;;5034850;28;20033;-83
2021/06/11 04:42:22;;;;;;;21.05;16.08;;;17.50;90.70;;;;;;5034557;28;20030;-84
2021/06/11 04:44:47;;;;;;;24.13;17.23;;;17.50;90.90;;;;;;5034554;28;20064;-84
2021/06/11 04:47:13;;;;;;;27.13;19.00;;;17.50;90.90;;;;;;5034490;28;20052;-82
2021/06/11 04:49:39;;;;;;;24.08;17.70;;;17.60;90.90;;;;;;5035821;28;20022;-83
2021/06/11 04:52:05;;;;;;;25.48;17.60;;;17.60;90.90;;;;;;5018091;28;20496;-83
2021/06/11 04:54:31;;;;;;;27.10;18.50;;;17.60;91.00;;;;;;5034132;28;20667;-84
2021/06/11 04:56:59;;;;;;;25.65;19.05;;;17.60;91.10;;;;;;5035527;28;20053;-83
2021/06/11 04:59:24;;;;;;;26.33;18.88;;;17.50;91.10;;;;;;5034982;28;20021;-83
2021/06/11 05:01:50;;;;;;;26.13;19.77;;;17.50;91.20;;;;;;5033861;28;20469;-84
2021/06/11 05:04:16;;;;;;;25.77;18.90;;;17.50;91.20;;;;;;5034307;28;20037;-89
2021/06/11 05:06:41;;;;;;;25.08;18.58;;;17.40;91.30;;;;;;5033583;28;20022;-80
2021/06/11 05:09:07;;;;;;;26.33;20.35;;;17.50;91.50;;;;;;5035123;28;20033;-80
2021/06/11 05:11:32;;;;;;;30.63;20.38;;;17.50;91.70;;;;;;5017431;28;20037;-80
2021/06/11 05:13:58;;;;;;;27.55;20.55;;;17.50;91.70;;;;;;5033559;28;20033;-79
2021/06/11 05:16:24;;;;;;;28.45;21.05;;;17.50;91.70;;;;;;5024646;28;20041;-79
2021/06/11 05:18:49;;;;;;;34.42;21.38;;;17.50;91.70;;;;;;5049075;28;20029;-79
2021/06/11 05:21:15;;;;;;;27.63;18.48;;;17.60;91.90;;;;;;5036470;28;20033;-79
2021/06/11 05:23:41;;;;;;;28.90;21.85;;;17.60;91.90;;;;;;5052565;28;20032;-79
2021/06/11 05:26:06;;;;;;;27.45;19.70;;;17.60;92.00;;;;;;5053391;28;20107;-80
2021/06/11 05:28:32;;;;;;;24.40;18.27;;;17.60;92.00;;;;;;5053126;28;20021;-79
2021/06/11 05:30:58;;;;;;;27.63;19.98;;;17.60;92.00;;;;;;5037329;28;20151;-79
2021/06/11 05:33:23;;;;;;;29.20;19.98;;;17.70;91.90;;;;;;5051747;28;20047;-79
2021/06/11 05:35:51;;;;;;;25.27;19.25;;;17.70;92.30;;;;;;5052127;28;20544;-80
2021/06/11 05:38:17;;;;;;;26.38;18.98;;;17.70;92.10;;;;;;5052192;28;20079;-81
2021/06/11 05:40:43;;;;;;;25.55;19.10;;;17.80;92.10;;;;;;5044799;28;20034;-80
2021/06/11 05:43:08;;;;;;;31.77;20.48;;;17.80;92.00;;;;;;5043535;28;20029;-80
2021/06/11 05:45:35;;;;;;;25.38;19.27;;;17.80;92.20;;;;;;5044447;28;20124;-80
2021/06/11 05:48:02;;;;;;;24.73;17.45;;;17.80;92.20;;;;;;5026966;28;20021;-79
2021/06/11 05:50:28;;;;;;;24.73;17.63;;;17.80;92.40;;;;;;5044380;28;20017;-80
2021/06/11 05:52:57;;;;;;;20.52;15.27;;;17.90;92.20;;;;;;5027992;28;20025;-80
2021/06/11 05:55:25;;;;;;;21.42;15.25;;;17.90;92.10;;;;;;5044428;28;20113;-80
2021/06/11 05:57:51;;;;;;;24.30;16.27;;;17.90;92.00;;;;;;5049204;28;20032;-79
2021/06/11 06:00:17;;;;;;;22.10;15.18;;;17.90;92.10;;;;;;5045337;28;20155;-79
2021/06/11 06:02:43;;;;;;;20.92;13.75;;;18.00;92.10;;;;;;5053300;28;20029;-80
2021/06/11 06:05:09;;;;;;;20.20;13.07;;;18.00;92.00;;;;;;5042584;28;20470;-80
2021/06/11 06:07:36;;;;;;;20.08;12.93;;;18.00;91.90;;;;;;5036098;28;20026;-79
2021/06/11 06:10:03;;;;;;;17.63;11.55;;;18.10;91.80;;;;;;5033627;28;20112;-80
2021/06/11 06:12:28;;;;;;;16.95;11.88;;;18.10;92.00;;;;;;5016983;28;20025;-80
2021/06/11 06:14:54;;;;;;;23.02;13.57;;;18.10;91.70;;;;;;5016104;28;20038;-80
2021/06/11 06:17:22;;;;;;;18.00;12.70;;;18.20;91.70;;;;;;5017803;28;20029;-80
2021/06/11 06:19:48;;;;;;;16.83;11.15;;;18.20;91.50;;;;;;5016141;28;20034;-79
2021/06/11 06:22:14;;;;;;;16.42;11.60;;;18.30;91.50;;;;;;5016876;28;20385;-79
2021/06/11 06:24:40;;;;;;;21.23;12.90;;;18.20;91.40;;;;;;5033009;28;20037;-80
2021/06/11 06:27:06;;;;;;;18.48;12.48;;;18.30;91.40;;;;;;5016061;28;20044;-79
2021/06/11 06:29:31;;;;;;;17.38;11.88;;;18.40;91.40;;;;;;5033917;28;20040;-79
2021/06/11 06:31:57;;;;;;;17.65;12.20;;;18.30;91.40;;;;;;5015834;28;20057;-80
2021/06/11 06:34:25;;;;;;;18.92;12.13;;;18.40;91.30;;;;;;5032395;28;20026;-80
2021/06/11 06:36:50;;;;;;;17.80;12.52;;;18.40;91.30;;;;;;5032156;28;20025;-79
2021/06/11 06:39:16;;;;;;;15.80;11.45;;;18.40;91.20;;;;;;5015834;28;20036;-79
2021/06/11 06:41:42;;;;;;;18.08;12.02;;;18.50;91.20;;;;;;5032487;28;20176;-80
2021/06/11 06:44:07;;;;;;;18.10;12.15;;;18.50;91.30;;;;;;5032159;28;20033;-80
2021/06/11 06:46:33;;;;;;;19.85;14.07;;;18.50;91.20;;;;;;4999204;28;20045;-79
2021/06/11 06:49:00;;;;;;;20.55;13.80;;;18.60;91.20;;;;;;5052052;28;20032;-80
2021/06/11 06:51:26;;;;;;;16.90;11.60;;;18.60;91.10;;;;;;5034784;28;20025;-81
2021/06/11 06:53:54;;;;;;;18.02;12.32;;;18.60;91.10;;;;;;5045991;28;20481;-79
2021/06/11 06:56:23;;;;;;;18.60;13.32;;;18.70;90.90;;;;;;5051661;28;20079;-79
2021/06/11 06:58:49;;;;;;;17.98;12.98;;;18.70;90.70;;;;;;5035836;28;20482;-79
2021/06/11 07:01:15;;;;;;;21.17;15.07;;;18.70;90.50;;;;;;5051659;28;20128;-80
2021/06/11 07:03:40;;;;;;;20.05;15.07;;;18.70;90.50;;;;;;5035650;28;20029;-80
2021/06/11 07:06:06;;;;;;;23.13;17.13;;;18.70;90.30;;;;;;5051302;28;20455;-80
2021/06/11 07:08:32;;;;;;;27.00;18.30;;;18.80;90.40;;;;;;5051661;28;20052;-80
2021/06/11 07:11:01;;;;;;;21.70;15.27;;;18.80;90.40;;;;;;5035404;28;20037;-80
2021/06/11 07:13:31;;;;;;;25.58;18.15;;;18.80;90.40;;;;;;5052912;28;20541;-81
2021/06/11 07:15:58;;;;;;;23.13;16.67;;;18.80;90.40;;;;;;5035856;28;20033;-80
2021/06/11 07:18:23;;;;;;;29.30;20.70;;;18.90;90.40;;;;;;5031172;28;20045;-79
2021/06/11 07:20:49;;;;;;;32.95;22.63;;;18.90;90.60;;;;;;5017733;28;20033;-81
2021/06/11 07:23:15;;;;;;;29.90;21.00;;;18.90;90.60;;;;;;5042960;28;20032;-81
2021/06/11 07:25:43;;;;;;;33.50;23.05;;;18.90;90.60;;;;;;5035085;28;20037;-80
2021/06/11 07:28:08;;;;;;;32.65;22.27;;;18.90;90.60;;;;;;5051250;28;20138;-80
2021/06/11 07:30:34;;;;;;;33.03;20.17;;;19.00;90.60;;;;;;5051719;28;20481;-81
2021/06/11 07:32:59;;;;;;;30.55;20.17;;;19.00;90.50;;;;;;5051512;28;20031;-81
2021/06/11 07:35:25;;;;;;;29.30;20.30;;;19.00;90.30;;;;;;5034690;28;20112;-80
2021/06/11 07:37:51;;;;;;;28.05;19.25;;;19.00;90.30;;;;;;5047983;28;20064;-80
2021/06/11 07:40:17;;;;;;;27.65;18.95;;;19.00;90.30;;;;;;5034411;28;20574;-84
2021/06/11 07:42:42;;;;;;;30.05;17.58;;;19.00;90.20;;;;;;5051027;28;20036;-83
2021/06/11 07:45:09;;;;;;;28.58;17.55;;;19.00;90.10;;;;;;5050700;28;20037;-78
2021/06/11 07:47:35;;;;;;;26.38;18.42;;;19.00;90.10;;;;;;5034522;28;20029;-77
2021/06/11 07:50:03;;;;;;;27.42;18.02;;;19.10;90.20;;;;;;5051010;28;20109;-81
2021/06/11 07:52:31;;;;;;;22.55;16.73;;;19.10;90.10;;;;;;5031310;28;20029;-82
2021/06/11 07:54:56;;;;;;;26.48;17.17;;;19.20;90.10;;;;;;5002495;28;20059;-78
2021/06/11 07:57:22;;;;;;;25.08;16.30;;;19.20;90.00;;;;;;5050688;28;20112;-80
2021/06/11 07:59:48;;;;;;;22.65;16.83;;;19.20;90.00;;;;;;5050814;28;20029;-80
2021/06/11 08:02:15;;;;;;;21.13;15.07;;;19.20;89.80;;;;;;5050981;28;20033;-79
2021/06/11 08:04:40;;;;;;;23.15;16.48;;;19.20;89.40;;;;;;5039246;28;20133;-79
2021/06/11 08:07:06;;;;;;;23.30;15.68;;;19.20;89.30;;;;;;5034969;28;20069;-80
2021/06/11 08:09:33;;;;;;;22.58;17.17;;;19.30;89.10;;;;;;5035092;28;20081;-80
2021/06/11 08:11:58;;;;;;;25.25;17.42;;;19.30;89.10;;;;;;5035038;28;20029;-80
2021/06/11 08:14:24;;;;;;;26.27;17.95;;;19.30;89.90;;;;;;5035029;28;20029;-80
2021/06/11 08:16:50;;;;;;;26.60;17.50;;;19.40;89.40;;;;;;5034456;28;20478;-80
2021/06/11 08:19:15;;;;;;;22.38;16.60;;;19.50;89.50;;;;;;5034664;28;20065;-80
2021/06/11 08:21:41;;;;;;;24.30;16.67;;;19.50;89.30;;;;;;5018079;28;20030;-80
2021/06/11 08:24:07;;;;;;;22.30;15.93;;;19.50;89.00;;;;;;5034785;28;20030;-80
2021/06/11 08:26:33;;;;;;;23.02;15.93;;;19.60;88.70;;;;;;5034608;28;20068;-80
2021/06/11 08:28:58;;;;;;;28.10;19.08;;;19.60;88.60;;;;;;5036052;28;20032;-81
2021/06/11 08:31:24;;;;;;;29.15;19.33;;;19.70;88.70;;;;;;5034710;28;20109;-80
2021/06/11 08:33:50;;;;;;;26.05;17.73;;;19.80;88.70;;;;;;5035138;28;20123;-80
2021/06/11 08:36:16;;;;;;;24.42;17.40;;;19.80;88.70;;;;;;5034575;28;20379;-81
2021/06/11 08:38:41;;;;;;;24.20;16.75;;;19.90;88.50;;;;;;5034273;28;20046;-81
2021/06/11 08:41:09;;;;;;;21.50;15.10;;;20.00;88.90;;;;;;5034274;28;20037;-81
2021/06/11 08:43:35;;;;;;;21.40;15.65;;;20.10;88.30;;;;;;5033893;28;20022;-81
2021/06/11 08:46:01;;;;;;;21.90;15.13;;;20.10;87.90;;;;;;5034059;28;20095;-80
2021/06/11 08:48:27;;;;;;;22.80;16.23;;;20.20;87.80;;;;;;5052485;28;20531;-80
2021/06/11 08:50:53;;;;;;;25.17;18.17;;;20.40;87.60;;;;;;5054319;28;20021;-81
2021/06/11 08:53:18;;;;;;;24.20;16.75;;;20.40;87.10;;;;;;5048103;28;20049;-81
2021/06/11 08:55:46;;;;;;;25.30;17.52;;;20.50;86.80;;;;;;5028302;28;20021;-81
2021/06/11 08:58:12;;;;;;;24.80;16.77;;;20.60;86.50;;;;;;5053240;28;20028;-80
2021/06/11 09:00:38;;;;;;;23.20;16.38;;;20.70;86.00;;;;;;5051682;28;20083;-83
2021/06/11 09:03:12;;;;;;;22.45;15.98;;;20.70;85.50;;;;;;5037319;28;20025;-79
2021/06/11 09:05:46;;;;;;;24.25;17.98;;;20.80;85.20;;;;;;5054587;28;20081;-80
2021/06/11 09:08:26;;;;;;;21.98;15.88;;;20.90;85.00;;;;;;5053928;28;20461;-82
2021/06/11 09:11:07;;;;;;;24.05;15.38;;;21.00;84.70;;;;;;5054024;28;20064;-82
2021/06/11 09:13:33;;;;;;;23.83;15.07;;;21.10;84.40;;;;;;5053856;28;20423;-79
2021/06/11 09:16:16;;;;;;;20.67;16.20;;;21.20;84.10;;;;;;5037463;28;20029;-82
2021/06/11 09:18:56;;;;;;;19.70;13.77;;;21.30;83.80;;;;;;5052330;28;20025;-82
2021/06/11 09:21:28;;;;;;;18.33;13.80;;;21.40;83.60;;;;;;5053506;28;20055;-82
2021/06/11 09:24:09;;;;;;;22.27;15.40;;;21.50;83.40;;;;;;5053678;28;20063;-80
2021/06/11 09:26:35;;;;;;;21.48;15.15;;;21.70;83.20;;;;;;5032371;28;20075;-84
2021/06/11 09:29:20;;;;;;;20.85;14.20;;;21.80;82.90;;;;;;5000592;28;20053;-82
2021/06/11 09:31:46;;;;;;;22.48;15.00;;;21.90;82.40;;;;;;5034477;28;20052;-82
2021/06/11 09:34:26;;;;;;;20.60;15.93;;;22.00;82.00;;;;;;5035592;28;20453;-81
2021/06/11 09:36:58;;;;;;;17.15;13.10;;;22.10;82.00;;;;;;5033544;28;20026;-82
2021/06/11 09:39:24;;;;;;;16.27;12.68;;;22.20;80.90;;;;;;5019534;28;20488;-81
2021/06/11 09:42:04;;;;;;;17.27;12.88;;;22.30;80.40;;;;;;5031827;28;20034;-81
2021/06/11 09:44:30;;;;;;;17.90;13.30;;;22.40;79.90;;;;;;5018819;28;20107;-79
2021/06/11 09:46:55;;;;;;;19.17;14.13;;;22.60;79.70;;;;;;5019793;28;20120;-79
2021/06/11 09:49:25;;;;;;;19.52;14.32;;;22.70;78.70;;;;;;5032101;28;20124;-79
2021/06/11 09:52:08;;;;;;;18.20;13.88;;;22.90;78.40;;;;;;5033930;28;20032;-79
2021/06/11 09:54:34;;;;;;;17.70;13.63;;;23.00;77.90;;;;;;5039825;28;20036;-80
2021/06/11 09:57:19;;;;;;;21.88;14.20;;;23.20;77.80;;;;;;5032309;28;20033;-80
2021/06/11 09:59:45;;;;;;;18.55;12.95;;;23.30;76.50;;;;;;5022590;28;20045;-79
2021/06/11 10:02:21;;;;;;;17.55;13.35;;;23.30;76.70;;;;;;5041803;28;20033;-79
2021/06/11 10:04:47;;;;;;;17.27;12.23;;;23.40;75.60;;;;;;5000097;28;20393;-80
2021/06/11 10:07:13;;;;;;;19.70;12.88;;;23.50;75.40;;;;;;5014949;28;20040;-80
2021/06/11 10:09:40;;;;;;;18.58;12.93;;;23.60;74.90;;;;;;5038364;28;20033;-80
2021/06/11 10:12:07;;;;;;;17.85;13.90;;;23.70;74.60;;;;;;5039813;28;20041;-80
2021/06/11 10:14:34;;;;;;;17.23;13.48;;;23.80;74.40;;;;;;5032004;28;20496;-80
2021/06/11 10:17:00;;;;;;;19.45;14.23;;;24.00;73.90;;;;;;5032640;28;20535;-79
2021/06/11 10:19:27;;;;;;;17.00;11.73;;;24.00;73.40;;;;;;5039789;28;20025;-79
2021/06/11 10:21:53;;;;;;;17.33;12.55;;;24.00;73.00;;;;;;5013491;28;20087;-80
2021/06/11 10:24:20;;;;;;;20.50;13.65;;;24.10;72.80;;;;;;5041411;28;20026;-80
2021/06/11 10:26:46;;;;;;;17.10;13.02;;;24.20;72.20;;;;;;5032457;28;20029;-81
2021/06/11 10:29:17;;;;;;;17.40;11.80;;;24.40;72.10;;;;;;5027915;28;20056;-81
2021/06/11 10:31:43;;;;;;;19.30;13.38;;;24.60;71.70;;;;;;5042036;28;20097;-80
2021/06/11 10:34:09;;;;;;;19.90;13.07;;;24.70;71.00;;;;;;5043349;28;20014;-80
2021/06/11 10:36:43;;;;;;;15.85;10.10;;;24.90;70.50;;;;;;5030905;28;20144;-79
2021/06/11 10:39:18;;;;;;;13.55;10.95;;;25.10;70.60;;;;;;5032186;28;20098;-80
2021/06/11 10:41:57;;;;;;;16.05;11.65;;;25.40;69.20;;;;;;5033464;28;20377;-80
2021/06/11 10:44:29;;;;;;;15.55;10.65;;;25.70;68.30;;;;;;5032799;28;20026;-80
2021/06/11 10:47:14;;;;;;;15.98;10.95;;;25.90;67.60;;;;;;5031150;28;20041;-81
2021/06/11 10:49:55;;;;;;;12.07;9.73;;;26.00;66.70;;;;;;5046618;28;20098;-80
2021/06/11 10:52:38;;;;;;;11.40;8.40;;;26.00;65.80;;;;;;5053637;28;20416;-79
2021/06/11 10:55:23;;;;;;;14.55;9.57;;;26.20;65.40;;;;;;5046977;28;20068;-80
2021/06/11 10:57:52;;;;;;;11.73;8.07;;;26.40;64.10;;;;;;5044958;28;20033;-81
2021/06/11 11:00:26;;;;;;;13.30;8.93;;;26.40;64.00;;;;;;5034596;28;20022;-80
2021/06/11 11:02:59;;;;;;;9.70;6.70;;;26.40;64.00;;;;;;5051292;28;20025;-81
2021/06/11 11:05:33;;;;;;;10.80;8.30;;;26.90;64.30;;;;;;5035308;28;20033;-81
2021/06/11 11:08:01;;;;;;;8.48;6.40;;;27.30;63.00;;;;;;5046918;28;20022;-82
2021/06/11 11:10:40;;;;;;;10.50;7.95;;;27.60;62.60;;;;;;5032829;28;20385;-82
2021/06/11 11:13:07;;;;;;;8.90;6.30;;;27.70;61.30;;;;;;5015214;28;20037;-80
2021/06/11 11:15:44;;;;;;;8.90;6.65;;;27.80;61.20;;;;;;5034026;28;20053;-80
2021/06/11 11:18:29;;;;;;;10.18;6.68;;;27.90;60.40;;;;;;5049840;28;20021;-82
2021/06/11 11:20:55;;;;;;;9.43;6.40;;;28.00;59.90;;;;;;5049966;28;20021;-82
2021/06/11 11:23:24;;;;;;;10.35;8.40;;;28.10;59.70;;;;;;5052474;28;20040;-83
2021/06/11 11:25:51;;;;;;;10.13;7.57;;;28.20;59.00;;;;;;5052246;28;20532;-83
2021/06/11 11:28:18;;;;;;;10.02;8.27;;;28.30;58.70;;;;;;5051264;28;20107;-82
2021/06/11 11:30:46;;;;;;;12.00;8.18;;;28.40;58.10;;;;;;5029133;28;20030;-82
2021/06/11 11:33:12;;;;;;;8.45;5.95;;;28.40;57.70;;;;;;5050761;28;20029;-83
2021/06/11 11:35:40;;;;;;;8.23;6.10;;;28.30;57.60;;;;;;5032683;28;20434;-83
2021/06/11 11:38:08;;;;;;;8.35;6.45;;;28.40;56.90;;;;;;5031077;28;20073;-83
2021/06/11 11:40:35;;;;;;;9.40;7.50;;;28.60;56.60;;;;;;5016007;28;20048;-82
2021/06/11 11:43:01;;;;;;;10.52;8.27;;;28.60;56.40;;;;;;5037201;28;20041;-82
2021/06/11 11:45:29;;;;;;;9.85;7.28;;;28.50;56.40;;;;;;5027716;28;20037;-83
2021/06/11 11:47:56;;;;;;;8.68;6.45;;;28.40;56.30;;;;;;5040504;28;20057;-83
2021/06/11 11:50:23;;;;;;;6.82;5.15;;;28.30;56.10;;;;;;5037116;28;20037;-82
2021/06/11 11:52:52;;;;;;;9.38;6.43;;;28.40;56.00;;;;;;5035190;28;20477;-82
2021/06/11 11:55:17;;;;;;;8.38;6.18;;;28.60;55.90;;;;;;5037341;28;20116;-82
2021/06/11 11:57:45;;;;;;;8.50;6.60;;;28.80;55.80;;;;;;5035819;28;20430;-81
2021/06/11 12:00:12;;;;;;;7.10;5.05;;;29.00;55.50;;;;;;5046159;28;20476;-82
2021/06/11 12:02:38;;;;;;;11.63;6.15;;;29.30;55.10;;;;;;5044563;28;20024;-81
2021/06/11 12:05:05;;;;;;;8.32;6.07;;;29.50;54.80;;;;;;5035212;28;20029;-82
2021/06/11 12:07:30;;;;;;;9.23;5.70;;;29.60;54.30;;;;;;5030608;28;20022;-82
2021/06/11 12:09:58;;;;;;;7.97;5.30;;;29.80;54.10;;;;;;5018763;28;20367;-83
2021/06/11 12:12:24;;;;;;;6.45;4.43;;;30.00;53.60;;;;;;5055834;28;20033;-83
2021/06/11 12:14:50;;;;;;;7.65;5.57;;;30.30;53.10;;;;;;5056069;28;20069;-83
2021/06/11 12:17:16;;;;;;;7.07;5.40;;;30.50;52.60;;;;;;5053782;28;20485;-82
2021/06/11 12:19:41;;;;;;;8.57;5.85;;;30.70;52.50;;;;;;5035041;28;20025;-82
2021/06/11 12:22:07;;;;;;;10.50;6.65;;;30.80;52.10;;;;;;5035684;28;20489;-82
2021/06/11 12:24:33;;;;;;;9.18;6.30;;;30.90;51.60;;;;;;5034708;28;20038;-82
2021/06/11 12:26:59;;;;;;;9.40;7.10;;;30.80;51.30;;;;;;5018155;28;20347;-79
2021/06/11 12:29:24;;;;;;;8.50;6.82;;;30.70;51.20;;;;;;5047461;28;20138;-82
2021/06/11 12:31:51;;;;;;;8.93;6.55;;;30.80;51.00;;;;;;5055148;28;20040;-82
2021/06/11 12:34:18;;;;;;;8.15;5.93;;;30.70;50.70;;;;;;5038170;28;20056;-82
2021/06/11 12:36:44;;;;;;;5.93;4.10;;;30.80;50.60;;;;;;5055913;28;20047;-83
2021/06/11 12:39:10;;;;;;;7.78;5.65;;;30.80;50.00;;;;;;5050531;28;20051;-83